Time;durP1;ratioP1;P1;durP2;ratioP2;P2;SDS_P1;SDS_P2;PMS_P1;PMS_P2;Temp;Humidity;BMP_temperature;BMP_pressure;BME280_temperature;BME280_humidity;BME280_pressure;Samples;Min_cycle;Max_cycle;Signal;HPM_P1;HPM_P2
2024/01/06 00:02:01;;;;;;;6.63;1.17;;;;;;;;;;5035697;28;20093;-75
2024/01/06 00:04:28;;;;;;;3.97;0.93;;;;;;;;;;5036926;28;20037;-76
2024/01/06 00:06:55;;;;;;;3.83;1.13;;;;;;;;;;5034310;28;20056;-76
2024/01/06 00:09:20;;;;;;;;;;;;;;;;;;5031974;28;20060;-77
2024/01/06 00:11:47;;;;;;;7.22;2.13;;;;;;;;;;5034233;28;20005;-77
2024/01/06 00:14:13;;;;;;;7.40;1.73;;;;;;;;;;5011051;28;20109;-76
2024/01/06 00:16:39;;;;;;;7.10;1.48;;;;;;;;;;5018771;28;20025;-78
2024/01/06 00:19:05;;;;;;;7.47;1.80;;;;;;;;;;5017415;28;20039;-75
2024/01/06 00:21:31;;;;;;;5.53;1.50;;;;;;;;;;5030963;28;20112;-75
2024/01/06 00:23:57;;;;;;;7.00;1.58;;;;;;;;;;5029007;28;20067;-77
2024/01/06 00:26:27;;;;;;;6.25;1.70;;;;;;;;;;5025177;28;20040;-74
2024/01/06 00:28:53;;;;;;;7.00;1.70;;;;;;;;;;5026641;28;20827;-75
2024/01/06 00:31:19;;;;;;;6.07;1.60;;;;;;;;;;5022994;28;20058;-77
2024/01/06 00:33:45;;;;;;;;;;;;;;;;;;5026074;28;20028;-74
2024/01/06 00:36:11;;;;;;;8.23;1.98;;;;;;;;;;5027768;28;19920;-75
2024/01/06 00:38:37;;;;;;;8.82;2.00;;;;;;;;;;5012358;28;20052;-75
2024/01/06 00:41:04;;;;;;;7.95;2.05;;;;;;;;;;5013207;28;20025;-76
2024/01/06 00:43:30;;;;;;;7.40;1.73;;;;;;;;;;5031804;28;20029;-75
2024/01/06 00:45:56;;;;;;;7.75;1.67;;;;;;;;;;5013179;28;20838;-74
2024/01/06 00:48:22;;;;;;;8.73;1.70;;;;;;;;;;5029529;28;20123;-75
2024/01/06 00:50:48;;;;;;;7.55;1.77;;;;;;;;;;5011515;28;20392;-75
2024/01/06 00:53:14;;;;;;;9.10;2.10;;;;;;;;;;5011220;28;20021;-75
2024/01/06 00:55:40;;;;;;;8.13;2.13;;;;;;;;;;5011693;28;20025;-75
2024/01/06 00:58:08;;;;;;;6.15;1.55;;;;;;;;;;5011106;28;20033;-75
2024/01/06 01:00:34;;;;;;;6.90;1.50;;;;;;;;;;5017462;28;20453;-75
2024/01/06 01:03:00;;;;;;;5.60;1.30;;;;;;;;;;5010953;28;20743;-75
2024/01/06 01:05:26;;;;;;;4.07;1.10;;;;;;;;;;5012358;28;20138;-75
2024/01/06 01:07:52;;;;;;;6.10;1.35;;;;;;;;;;5027075;28;20047;-75
2024/01/06 01:10:19;;;;;;;3.92;1.02;;;;;;;;;;5024693;28;20049;-75
2024/01/06 01:12:45;;;;;;;3.97;1.17;;;;;;;;;;5032200;28;20033;-76
2024/01/06 01:15:11;;;;;;;3.97;1.05;;;;;;;;;;5025040;28;20025;-75
2024/01/06 01:17:37;;;;;;;4.95;1.10;;;;;;;;;;5032835;28;20170;-75
2024/01/06 01:20:03;;;;;;;7.60;1.13;;;;;;;;;;5028545;28;20025;-75
2024/01/06 01:22:29;;;;;;;5.85;1.30;;;;;;;;;;5029358;28;20187;-75
2024/01/06 01:24:55;;;;;;;3.92;1.10;;;;;;;;;;5025486;28;20113;-75
2024/01/06 01:27:22;;;;;;;3.42;0.93;;;;;;;;;;5026626;28;20029;-75
2024/01/06 01:29:50;;;;;;;4.10;0.90;;;;;;;;;;5025063;28;20041;-75
2024/01/06 01:32:16;;;;;;;3.30;1.08;;;;;;;;;;5027576;28;20029;-75
2024/01/06 01:34:42;;;;;;;2.88;0.95;;;;;;;;;;5029119;28;20025;-75
2024/01/06 01:37:08;;;;;;;4.70;1.05;;;;;;;;;;5030305;28;20116;-75
2024/01/06 01:39:34;;;;;;;3.55;0.98;;;;;;;;;;5035897;28;20032;-75
2024/01/06 01:42:00;;;;;;;3.65;1.20;;;;;;;;;;5031855;28;20087;-75
2024/01/06 01:44:26;;;;;;;3.90;1.13;;;;;;;;;;5028194;28;20032;-75
2024/01/06 01:46:52;;;;;;;4.13;1.13;;;;;;;;;;5029292;28;20094;-74
2024/01/06 01:49:20;;;;;;;5.57;1.15;;;;;;;;;;5032084;28;20032;-75
2024/01/06 01:51:46;;;;;;;4.53;1.10;;;;;;;;;;5023955;28;20037;-74
2024/01/06 01:54:13;;;;;;;6.13;1.23;;;;;;;;;;5027558;28;20117;-74
2024/01/06 01:56:40;;;;;;;5.50;1.25;;;;;;;;;;5033028;28;20044;-74
2024/01/06 01:59:10;;;;;;;4.40;1.10;;;;;;;;;;5029948;28;20033;-75
2024/01/06 02:01:36;;;;;;;6.28;1.48;;;;;;;;;;5028787;28;20028;-75
2024/01/06 02:04:02;;;;;;;5.45;1.45;;;;;;;;;;5028346;28;20036;-74
2024/01/06 02:06:28;;;;;;;5.78;1.35;;;;;;;;;;5034508;28;20063;-74
2024/01/06 02:08:56;;;;;;;3.42;1.10;;;;;;;;;;5027522;28;20053;-75
2024/01/06 02:11:23;;;;;;;5.47;1.40;;;;;;;;;;5013162;28;20030;-74
2024/01/06 02:13:50;;;;;;;6.60;1.60;;;;;;;;;;5031319;28;20017;-75
2024/01/06 02:16:16;;;;;;;5.80;1.65;;;;;;;;;;5014185;28;20619;-75
2024/01/06 02:18:42;;;;;;;5.07;1.45;;;;;;;;;;5011149;28;20017;-73
2024/01/06 02:21:08;;;;;;;;;;;;;;;;;;5024928;28;20021;-75
2024/01/06 02:23:35;;;;;;;6.60;1.38;;;;;;;;;;5016552;28;19966;-74
2024/01/06 02:26:01;;;;;;;7.57;1.40;;;;;;;;;;5015770;28;20029;-75
2024/01/06 02:28:27;;;;;;;7.40;1.50;;;;;;;;;;5029507;28;20017;-75
2024/01/06 02:30:53;;;;;;;4.95;1.40;;;;;;;;;;5009238;28;20117;-74
2024/01/06 02:33:20;;;;;;;7.43;1.80;;;;;;;;;;5033366;28;20024;-75
2024/01/06 02:35:46;;;;;;;6.10;1.40;;;;;;;;;;5016181;28;20996;-73
2024/01/06 02:38:12;;;;;;;6.50;1.40;;;;;;;;;;5034437;28;24184;-73
2024/01/06 02:40:38;;;;;;;6.18;1.17;;;;;;;;;;5015481;28;20406;-73
2024/01/06 02:43:05;;;;;;;6.88;1.30;;;;;;;;;;5010573;28;20040;-73
2024/01/06 02:45:31;;;;;;;5.32;1.10;;;;;;;;;;5013079;28;20036;-73
2024/01/06 02:47:57;;;;;;;5.55;1.15;;;;;;;;;;5028014;28;20121;-73
2024/01/06 02:50:23;;;;;;;3.78;0.95;;;;;;;;;;5032276;28;20029;-75
2024/01/06 02:52:49;;;;;;;5.38;1.10;;;;;;;;;;5020499;28;20095;-75
2024/01/06 02:55:15;;;;;;;4.15;1.00;;;;;;;;;;5012995;28;20029;-75
2024/01/06 02:57:41;;;;;;;6.47;1.13;;;;;;;;;;5021437;28;20095;-73
2024/01/06 03:00:08;;;;;;;4.78;1.33;;;;;;;;;;5015947;28;20031;-73
2024/01/06 03:02:36;;;;;;;5.05;1.23;;;;;;;;;;5021482;28;20031;-75
2024/01/06 03:05:02;;;;;;;6.90;1.40;;;;;;;;;;5019845;28;20071;-73
2024/01/06 03:07:28;;;;;;;6.00;1.40;;;;;;;;;;5036975;28;20103;-73
2024/01/06 03:09:54;;;;;;;3.63;0.93;;;;;;;;;;5031589;28;20062;-75
2024/01/06 03:12:20;;;;;;;4.30;1.08;;;;;;;;;;5030932;28;20033;-75
2024/01/06 03:14:46;;;;;;;6.55;1.30;;;;;;;;;;5018973;28;20163;-75
2024/01/06 03:17:13;;;;;;;6.50;1.10;;;;;;;;;;5027823;28;20025;-73
2024/01/06 03:19:39;;;;;;;5.40;1.20;;;;;;;;;;5014783;28;20028;-73
2024/01/06 03:22:06;;;;;;;5.07;1.10;;;;;;;;;;5015207;28;20036;-73
2024/01/06 03:24:32;;;;;;;3.50;1.10;;;;;;;;;;5025509;28;20107;-73
2024/01/06 03:26:58;;;;;;;6.55;1.20;;;;;;;;;;5012473;28;20033;-73
2024/01/06 03:29:24;;;;;;;4.50;1.10;;;;;;;;;;5012464;28;20483;-74
2024/01/06 03:31:50;;;;;;;6.38;1.33;;;;;;;;;;5026739;28;20116;-75
2024/01/06 03:34:16;;;;;;;6.53;1.20;;;;;;;;;;5027075;28;20099;-75
2024/01/06 03:36:42;;;;;;;6.32;1.20;;;;;;;;;;5012219;28;20021;-75
2024/01/06 03:39:10;;;;;;;4.78;1.00;;;;;;;;;;5005687;28;20040;-75
2024/01/06 03:41:36;;;;;;;5.72;1.10;;;;;;;;;;5016210;28;20052;-75
2024/01/06 03:44:02;;;;;;;4.28;1.02;;;;;;;;;;5024235;28;20117;-75
2024/01/06 03:46:28;;;;;;;5.88;1.08;;;;;;;;;;5017695;28;20025;-74
2024/01/06 03:48:56;;;;;;;5.95;0.93;;;;;;;;;;5010429;28;20621;-74
2024/01/06 03:51:22;;;;;;;5.05;0.98;;;;;;;;;;5033875;28;20025;-75
2024/01/06 03:53:48;;;;;;;3.78;0.90;;;;;;;;;;5034167;28;20465;-74
2024/01/06 03:56:14;;;;;;;5.13;1.05;;;;;;;;;;5013039;28;20481;-75
2024/01/06 03:58:40;;;;;;;4.20;0.90;;;;;;;;;;5032387;28;20870;-74
2024/01/06 04:01:06;;;;;;;3.45;0.90;;;;;;;;;;5027373;28;20017;-74
2024/01/06 04:03:32;;;;;;;5.03;1.00;;;;;;;;;;5009914;28;20127;-74
2024/01/06 04:05:59;;;;;;;4.25;1.00;;;;;;;;;;5007739;28;20167;-74
2024/01/06 04:08:25;;;;;;;3.85;0.98;;;;;;;;;;5018204;28;20094;-74
2024/01/06 04:10:51;;;;;;;5.38;0.93;;;;;;;;;;5026466;28;20436;-75
2024/01/06 04:13:17;;;;;;;7.30;1.15;;;;;;;;;;5032070;28;20108;-74
2024/01/06 04:15:43;;;;;;;3.63;0.90;;;;;;;;;;5031891;28;20527;-75
2024/01/06 04:18:09;;;;;;;3.35;0.80;;;;;;;;;;5027188;28;20034;-74
2024/01/06 04:20:36;;;;;;;6.68;1.20;;;;;;;;;;5029442;28;20496;-74
2024/01/06 04:23:02;;;;;;;3.97;1.00;;;;;;;;;;5029270;28;20196;-75
2024/01/06 04:25:28;;;;;;;5.72;1.02;;;;;;;;;;5033455;28;20041;-75
2024/01/06 04:27:55;;;;;;;4.50;1.20;;;;;;;;;;5031275;28;20123;-75
2024/01/06 04:30:21;;;;;;;3.88;0.80;;;;;;;;;;5035830;28;20025;-76
2024/01/06 04:32:48;;;;;;;4.65;1.15;;;;;;;;;;5033610;28;20037;-75
2024/01/06 04:35:14;;;;;;;3.63;1.15;;;;;;;;;;5034236;28;20493;-74
2024/01/06 04:37:41;;;;;;;3.45;0.82;;;;;;;;;;5034190;28;20054;-74
2024/01/06 04:40:07;;;;;;;4.10;0.98;;;;;;;;;;5031729;28;20209;-74
2024/01/06 04:42:34;;;;;;;3.13;0.90;;;;;;;;;;5033208;28;20060;-74
2024/01/06 04:45:00;;;;;;;5.82;0.90;;;;;;;;;;5032426;28;20067;-75
2024/01/06 04:47:27;;;;;;;;;;;;;;;;;;5027688;28;20025;-74
2024/01/06 04:49:54;;;;;;;3.53;0.82;;;;;;;;;;5032994;28;20536;-75
2024/01/06 04:52:20;;;;;;;4.30;0.85;;;;;;;;;;5030482;28;20132;-73
2024/01/06 04:54:46;;;;;;;2.72;0.70;;;;;;;;;;5029884;28;20429;-74
2024/01/06 04:57:13;;;;;;;3.28;0.90;;;;;;;;;;5031268;28;20029;-73
2024/01/06 04:59:39;;;;;;;2.47;0.80;;;;;;;;;;5031592;28;20038;-73
2024/01/06 05:02:05;;;;;;;4.88;1.00;;;;;;;;;;5027143;28;20037;-73
2024/01/06 05:04:32;;;;;;;3.78;0.85;;;;;;;;;;5032107;28;20035;-76
2024/01/06 05:06:59;;;;;;;5.22;1.00;;;;;;;;;;5023516;28;20033;-73
2024/01/06 05:09:26;;;;;;;3.95;0.90;;;;;;;;;;5031079;28;20051;-73
2024/01/06 05:11:52;;;;;;;4.45;1.00;;;;;;;;;;5030278;28;20031;-73
2024/01/06 05:14:18;;;;;;;5.47;1.10;;;;;;;;;;5028609;28;20045;-73
2024/01/06 05:16:44;;;;;;;4.20;1.00;;;;;;;;;;5031622;28;20140;-73
2024/01/06 05:19:10;;;;;;;4.38;0.90;;;;;;;;;;5025938;28;20072;-74
2024/01/06 05:21:37;;;;;;;4.82;0.90;;;;;;;;;;5031801;28;20033;-74
2024/01/06 05:24:03;;;;;;;5.80;1.20;;;;;;;;;;5027390;28;20564;-73
2024/01/06 05:26:29;;;;;;;5.25;1.00;;;;;;;;;;5033118;28;20752;-73
2024/01/06 05:28:55;;;;;;;7.72;1.05;;;;;;;;;;5030947;28;20089;-74
2024/01/06 05:31:21;;;;;;;5.78;1.00;;;;;;;;;;5032043;28;20093;-73
2024/01/06 05:33:47;;;;;;;8.25;1.40;;;;;;;;;;5025812;28;20572;-73
2024/01/06 05:36:13;;;;;;;6.90;1.17;;;;;;;;;;5033388;28;20021;-73
2024/01/06 05:38:39;;;;;;;6.47;1.25;;;;;;;;;;5031923;28;20037;-74
2024/01/06 05:41:05;;;;;;;9.43;1.27;;;;;;;;;;5027259;28;20092;-73
2024/01/06 05:43:31;;;;;;;8.75;1.60;;;;;;;;;;5026535;28;20044;-73
2024/01/06 05:45:58;;;;;;;7.00;1.60;;;;;;;;;;5026685;28;20838;-73
2024/01/06 05:48:24;;;;;;;8.38;1.48;;;;;;;;;;5026968;28;20083;-73
2024/01/06 05:50:50;;;;;;;8.77;1.58;;;;;;;;;;5032931;28;20305;-74
2024/01/06 05:53:18;;;;;;;8.35;1.55;;;;;;;;;;5029849;28;20033;-74
2024/01/06 05:55:44;;;;;;;6.60;1.48;;;;;;;;;;5032840;28;20032;-74
2024/01/06 05:58:10;;;;;;;12.20;2.00;;;;;;;;;;5033524;28;20041;-74
2024/01/06 06:00:36;;;;;;;7.15;1.63;;;;;;;;;;5033666;28;20029;-73
2024/01/06 06:03:02;;;;;;;8.95;1.73;;;;;;;;;;5032272;28;20033;-74
2024/01/06 06:05:28;;;;;;;7.63;1.42;;;;;;;;;;5035259;28;20025;-74
2024/01/06 06:07:55;;;;;;;7.55;1.33;;;;;;;;;;5030156;28;20099;-74
2024/01/06 06:10:21;;;;;;;9.90;1.90;;;;;;;;;;5021890;28;20101;-74
2024/01/06 06:12:48;;;;;;;;;;;;;;;;;;5025824;28;20534;-74
2024/01/06 06:15:14;;;;;;;11.45;1.77;;;;;;;;;;5026136;28;20273;-74
2024/01/06 06:17:40;;;;;;;8.57;1.50;;;;;;;;;;5035663;28;20024;-74
2024/01/06 06:20:06;;;;;;;9.20;1.88;;;;;;;;;;5026882;28;20072;-73
2024/01/06 06:22:32;;;;;;;;;;;;;;;;;;5028161;28;20116;-76
2024/01/06 06:24:59;;;;;;;11.48;1.80;;;;;;;;;;5026296;28;19912;-75
2024/01/06 06:27:26;;;;;;;11.23;1.92;;;;;;;;;;5038992;28;20615;-73
2024/01/06 06:29:52;;;;;;;10.18;1.67;;;;;;;;;;5029458;28;20025;-74
2024/01/06 06:32:18;;;;;;;9.68;1.65;;;;;;;;;;5033706;28;20556;-74
2024/01/06 06:34:44;;;;;;;9.98;1.83;;;;;;;;;;5031338;28;20669;-73
2024/01/06 06:37:11;;;;;;;9.88;1.70;;;;;;;;;;5032633;28;20028;-73
2024/01/06 06:39:37;;;;;;;8.38;1.73;;;;;;;;;;5034507;28;20435;-73
2024/01/06 06:42:04;;;;;;;7.85;1.60;;;;;;;;;;5033103;28;20029;-73
2024/01/06 06:44:30;;;;;;;9.77;1.90;;;;;;;;;;5030911;28;20031;-73
2024/01/06 06:46:56;;;;;;;10.68;2.00;;;;;;;;;;5031519;28;20050;-74
2024/01/06 06:49:23;;;;;;;10.85;2.30;;;;;;;;;;5028989;28;20036;-74
2024/01/06 06:51:49;;;;;;;11.32;1.85;;;;;;;;;;5032528;28;20021;-73
2024/01/06 06:54:16;;;;;;;8.95;1.67;;;;;;;;;;5035555;28;20021;-74
2024/01/06 06:56:42;;;;;;;;;;;;;;;;;;5032079;28;20036;-73
2024/01/06 06:59:08;;;;;;;9.25;1.73;;;;;;;;;;5028427;28;19909;-73
2024/01/06 07:01:35;;;;;;;8.25;1.70;;;;;;;;;;5034674;28;20877;-73
2024/01/06 07:04:02;;;;;;;8.95;1.85;;;;;;;;;;5027377;28;20031;-75
2024/01/06 07:06:28;;;;;;;9.80;1.58;;;;;;;;;;5035334;28;20029;-74
2024/01/06 07:08:55;;;;;;;7.78;1.50;;;;;;;;;;5033591;28;20432;-74
2024/01/06 07:11:21;;;;;;;;;;;;;;;;;;5014096;28;20024;-74
2024/01/06 07:13:47;;;;;;;10.15;2.22;;;;;;;;;;5014393;28;19944;-75
2024/01/06 07:16:13;;;;;;;8.45;2.10;;;;;;;;;;5028560;28;20049;-74
2024/01/06 07:18:39;;;;;;;9.85;1.90;;;;;;;;;;5027568;28;20614;-74
2024/01/06 07:21:06;;;;;;;12.57;2.22;;;;;;;;;;5012148;28;20037;-74
2024/01/06 07:23:32;;;;;;;9.80;1.85;;;;;;;;;;5015119;28;20028;-74
2024/01/06 07:25:58;;;;;;;12.48;2.30;;;;;;;;;;5012874;28;20033;-74
2024/01/06 07:28:25;;;;;;;11.73;2.45;;;;;;;;;;5035688;28;20036;-74
2024/01/06 07:30:51;;;;;;;11.00;2.20;;;;;;;;;;5034093;28;20037;-74
2024/01/06 07:33:17;;;;;;;10.07;1.95;;;;;;;;;;5033058;28;20033;-74
2024/01/06 07:35:43;;;;;;;8.15;1.80;;;;;;;;;;5014278;28;20443;-75
2024/01/06 07:38:10;;;;;;;11.70;2.05;;;;;;;;;;5009230;28;20678;-74
2024/01/06 07:40:37;;;;;;;9.27;1.85;;;;;;;;;;5031900;28;20036;-75
2024/01/06 07:43:04;;;;;;;11.55;2.13;;;;;;;;;;5014711;28;20791;-74
2024/01/06 07:45:30;;;;;;;10.25;1.90;;;;;;;;;;5031097;28;20715;-74
2024/01/06 07:47:56;;;;;;;13.07;2.50;;;;;;;;;;5018696;28;20045;-74
2024/01/06 07:50:22;;;;;;;11.50;2.22;;;;;;;;;;5033667;28;20524;-75
2024/01/06 07:52:48;;;;;;;12.18;2.10;;;;;;;;;;5012305;28;20781;-74
2024/01/06 07:55:14;;;;;;;9.90;2.47;;;;;;;;;;5016037;28;20017;-75
2024/01/06 07:57:42;;;;;;;11.60;2.33;;;;;;;;;;5014254;28;20066;-75
2024/01/06 08:00:08;;;;;;;11.20;2.25;;;;;;;;;;5030276;28;20028;-75
2024/01/06 08:02:34;;;;;;;;;;;;;;;;;;5014834;28;20028;-74
2024/01/06 08:05:00;;;;;;;8.98;1.90;;;;;;;;;;5009120;28;19975;-73
2024/01/06 08:07:27;;;;;;;10.57;2.45;;;;;;;;;;5028770;28;20047;-73
2024/01/06 08:09:53;;;;;;;9.50;2.42;;;;;;;;;;5030690;28;20048;-73
2024/01/06 08:12:19;;;;;;;12.05;2.53;;;;;;;;;;5007542;28;20022;-75
2024/01/06 08:14:45;;;;;;;11.85;2.90;;;;;;;;;;5016425;28;20029;-72
2024/01/06 08:17:11;;;;;;;13.52;2.50;;;;;;;;;;5016079;28;20036;-75
2024/01/06 08:19:37;;;;;;;11.30;2.40;;;;;;;;;;5030313;28;20037;-75
2024/01/06 08:22:03;;;;;;;11.88;3.00;;;;;;;;;;5027590;28;20029;-75
2024/01/06 08:24:29;;;;;;;10.90;2.42;;;;;;;;;;5029963;28;20095;-75
2024/01/06 08:26:58;;;;;;;10.88;2.40;;;;;;;;;;5009556;28;20028;-72
2024/01/06 08:29:24;;;;;;;8.63;2.20;;;;;;;;;;5008880;28;20054;-75
2024/01/06 08:31:52;;;;;;;8.98;2.10;;;;;;;;;;5011544;28;20423;-75
2024/01/06 08:34:19;;;;;;;10.15;2.20;;;;;;;;;;5028949;28;20033;-75
2024/01/06 08:36:45;;;;;;;12.45;2.80;;;;;;;;;;5024407;28;20469;-75
2024/01/06 08:39:12;;;;;;;11.68;2.22;;;;;;;;;;5026585;28;20167;-74
2024/01/06 08:41:38;;;;;;;9.60;2.20;;;;;;;;;;5016023;28;20615;-75
2024/01/06 08:44:04;;;;;;;9.50;2.08;;;;;;;;;;5034801;28;20045;-75
2024/01/06 08:46:31;;;;;;;9.70;2.20;;;;;;;;;;5030227;28;20033;-75
2024/01/06 08:48:57;;;;;;;10.25;2.88;;;;;;;;;;5010225;28;20112;-75
2024/01/06 08:51:24;;;;;;;;;;;;;;;;;;5016812;28;20032;-75
2024/01/06 08:53:50;;;;;;;12.88;2.90;;;;;;;;;;5029589;28;20031;-74
2024/01/06 08:56:17;;;;;;;;;;;;;;;;;;5012258;28;20025;-75
2024/01/06 08:58:43;;;;;;;9.82;2.33;;;;;;;;;;5013564;28;19920;-74
2024/01/06 09:01:09;;;;;;;;;;;;;;;;;;5011250;28;20725;-75
2024/01/06 09:03:36;;;;;;;9.95;1.90;;;;;;;;;;5012695;28;19969;-75
2024/01/06 09:06:02;;;;;;;10.43;2.20;;;;;;;;;;5010792;28;20412;-74
2024/01/06 09:08:28;;;;;;;8.45;1.95;;;;;;;;;;5013311;28;20057;-74
2024/01/06 09:10:58;;;;;;;10.15;1.80;;;;;;;;;;5033154;28;20489;-74
2024/01/06 09:13:24;;;;;;;9.98;2.30;;;;;;;;;;5013853;28;20025;-76
2024/01/06 09:15:52;;;;;;;8.70;2.25;;;;;;;;;;5033510;28;20017;-74
2024/01/06 09:18:19;;;;;;;10.02;1.75;;;;;;;;;;5012769;28;20075;-74
2024/01/06 09:20:47;;;;;;;;;;;;;;;;;;5032172;28;20698;-74
2024/01/06 09:23:13;;;;;;;9.30;2.17;;;;;;;;;;5016062;28;20611;-74
2024/01/06 09:25:39;;;;;;;7.45;1.63;;;;;;;;;;5033838;28;20063;-74
2024/01/06 09:28:05;;;;;;;;;;;;;;;;;;5013269;28;20560;-76
2024/01/06 09:30:31;;;;;;;8.75;1.90;;;;;;;;;;5014288;28;19927;-76
2024/01/06 09:32:58;;;;;;;9.65;2.15;;;;;;;;;;5010837;28;20060;-74
2024/01/06 09:35:24;;;;;;;8.85;2.00;;;;;;;;;;5005496;28;20032;-73
2024/01/06 09:37:50;;;;;;;9.45;2.03;;;;;;;;;;5016574;28;20021;-74
2024/01/06 09:40:24;;;;;;;11.48;2.17;;;;;;;;;;5030409;28;20116;-74
2024/01/06 09:42:53;;;;;;;11.35;2.70;;;;;;;;;;5011100;28;20481;-76
2024/01/06 09:45:22;;;;;;;9.88;2.88;;;;;;;;;;5031566;28;20749;-78
2024/01/06 09:47:50;;;;;;;8.98;2.78;;;;;;;;;;5032514;28;20031;-74
2024/01/06 09:50:19;;;;;;;12.82;3.60;;;;;;;;;;5029987;28;20057;-75
2024/01/06 09:52:52;;;;;;;12.65;3.97;;;;;;;;;;5014221;28;20033;-75
2024/01/06 09:55:20;;;;;;;10.40;3.78;;;;;;;;;;5031444;28;20086;-75
2024/01/06 09:57:46;;;;;;;11.00;4.10;;;;;;;;;;5031200;28;20044;-75
2024/01/06 10:00:13;;;;;;;11.05;4.32;;;;;;;;;;5026325;28;20122;-76
2024/01/06 10:02:40;;;;;;;12.60;4.78;;;;;;;;;;5013717;28;20544;-75
2024/01/06 10:05:07;;;;;;;10.50;4.93;;;;;;;;;;5010104;28;20039;-74
2024/01/06 10:07:33;;;;;;;11.57;5.30;;;;;;;;;;5014052;28;20709;-74
2024/01/06 10:09:59;;;;;;;13.15;4.32;;;;;;;;;;5019870;28;20154;-75
2024/01/06 10:12:26;;;;;;;10.13;2.97;;;;;;;;;;5031267;28;20568;-74
2024/01/06 10:14:54;;;;;;;11.73;4.13;;;;;;;;;;5025719;28;20175;-74
2024/01/06 10:17:20;;;;;;;12.40;3.63;;;;;;;;;;5033455;28;20017;-75
2024/01/06 10:19:50;;;;;;;11.60;3.13;;;;;;;;;;5025178;28;20575;-76
2024/01/06 10:22:17;;;;;;;9.82;3.00;;;;;;;;;;5028889;28;20183;-75
2024/01/06 10:24:44;;;;;;;9.48;2.67;;;;;;;;;;5024166;28;20025;-75
2024/01/06 10:27:10;;;;;;;11.25;3.83;;;;;;;;;;5031259;28;20036;-76
2024/01/06 10:29:36;;;;;;;11.00;3.13;;;;;;;;;;5027254;28;20029;-75
2024/01/06 10:32:03;;;;;;;11.27;2.63;;;;;;;;;;5021815;28;20048;-75
2024/01/06 10:34:32;;;;;;;10.80;2.40;;;;;;;;;;5028091;28;20029;-75
2024/01/06 10:36:59;;;;;;;10.13;2.38;;;;;;;;;;5024902;28;20033;-75
2024/01/06 10:39:26;;;;;;;8.45;2.35;;;;;;;;;;5025297;28;20047;-75
2024/01/06 10:41:52;;;;;;;10.80;2.60;;;;;;;;;;5027817;28;20579;-75
2024/01/06 10:44:20;;;;;;;12.25;2.88;;;;;;;;;;5024909;28;20029;-75
2024/01/06 10:46:47;;;;;;;10.73;3.13;;;;;;;;;;5024356;28;20035;-75
2024/01/06 10:49:15;;;;;;;10.45;2.88;;;;;;;;;;5022233;28;20124;-74
2024/01/06 10:51:41;;;;;;;8.13;2.28;;;;;;;;;;5026311;28;20723;-75
2024/01/06 10:54:08;;;;;;;9.30;2.80;;;;;;;;;;5024180;28;20047;-74
2024/01/06 10:56:41;;;;;;;12.25;3.90;;;;;;;;;;5028526;28;20029;-74
2024/01/06 10:59:07;;;;;;;17.40;2.92;;;;;;;;;;5022882;28;20028;-74
2024/01/06 11:01:34;;;;;;;9.68;2.80;;;;;;;;;;5027832;28;20029;-75
2024/01/06 11:04:00;;;;;;;9.35;2.15;;;;;;;;;;5021515;28;20021;-76
2024/01/06 11:06:27;;;;;;;9.98;2.30;;;;;;;;;;5025750;28;20040;-74
2024/01/06 11:08:57;;;;;;;8.00;2.55;;;;;;;;;;5026786;28;20151;-76
2024/01/06 11:11:24;;;;;;;8.18;2.33;;;;;;;;;;5001845;28;20091;-75
2024/01/06 11:13:50;;;;;;;8.98;2.80;;;;;;;;;;5029207;28;20025;-76
2024/01/06 11:16:35;;;;;;;7.95;2.20;;;;;;;;;;5026054;28;20018;-74
2024/01/06 11:19:01;;;;;;;12.38;2.60;;;;;;;;;;5008004;28;20032;-75
2024/01/06 11:21:29;;;;;;;13.07;3.50;;;;;;;;;;5031255;28;20032;-75
2024/01/06 11:24:07;;;;;;;7.93;1.85;;;;;;;;;;5011499;28;20025;-75
2024/01/06 11:26:34;;;;;;;10.35;2.83;;;;;;;;;;5011496;28;20834;-75
2024/01/06 11:29:00;;;;;;;10.15;2.75;;;;;;;;;;5009217;28;20033;-74
2024/01/06 11:31:33;;;;;;;11.65;2.72;;;;;;;;;;5030678;28;20025;-75
2024/01/06 11:34:13;;;;;;;8.32;2.55;;;;;;;;;;5031116;28;20029;-74
2024/01/06 11:36:39;;;;;;;10.32;2.05;;;;;;;;;;5030941;28;20021;-74
2024/01/06 11:39:06;;;;;;;6.90;1.50;;;;;;;;;;5010332;28;20085;-74
2024/01/06 11:41:54;;;;;;;8.98;2.03;;;;;;;;;;5029836;28;20059;-75
2024/01/06 11:44:23;;;;;;;10.80;2.30;;;;;;;;;;5010496;28;20029;-75
2024/01/06 11:46:52;;;;;;;10.15;2.20;;;;;;;;;;5028732;28;20684;-75
2024/01/06 11:49:19;;;;;;;11.05;2.20;;;;;;;;;;5031045;28;20036;-76
2024/01/06 11:51:46;;;;;;;7.90;1.77;;;;;;;;;;5008056;28;20587;-76
2024/01/06 11:54:12;;;;;;;9.75;2.13;;;;;;;;;;5025341;28;20181;-75
2024/01/06 11:56:38;;;;;;;10.52;2.40;;;;;;;;;;5032109;28;20025;-75
2024/01/06 11:59:05;;;;;;;11.82;2.78;;;;;;;;;;5007448;28;20057;-76
2024/01/06 12:01:40;;;;;;;10.95;3.25;;;;;;;;;;5025835;28;20021;-74
2024/01/06 12:04:06;;;;;;;10.68;2.70;;;;;;;;;;5009956;28;20028;-75
2024/01/06 12:06:33;;;;;;;9.82;2.78;;;;;;;;;;5013395;28;20029;-74
2024/01/06 12:09:06;;;;;;;10.68;2.40;;;;;;;;;;5014554;28;20047;-74
2024/01/06 12:11:32;;;;;;;11.65;2.20;;;;;;;;;;5008563;28;20021;-74
2024/01/06 12:13:58;;;;;;;9.10;2.30;;;;;;;;;;5027822;28;20033;-75
2024/01/06 12:16:28;;;;;;;9.60;2.83;;;;;;;;;;5028649;28;20021;-74
2024/01/06 12:19:00;;;;;;;9.13;2.97;;;;;;;;;;5024179;28;20602;-74
2024/01/06 12:21:26;;;;;;;11.93;3.40;;;;;;;;;;5011520;28;20029;-74
2024/01/06 12:23:52;;;;;;;11.75;2.10;;;;;;;;;;5007366;28;20033;-74
2024/01/06 12:26:19;;;;;;;12.32;2.92;;;;;;;;;;5013373;28;20037;-74
2024/01/06 12:28:45;;;;;;;10.30;3.00;;;;;;;;;;5030517;28;20029;-74
2024/01/06 12:31:12;;;;;;;11.30;5.10;;;;;;;;;;5010098;28;20124;-75
2024/01/06 12:33:40;;;;;;;10.32;2.92;;;;;;;;;;5011692;28;20803;-76
2024/01/06 12:36:09;;;;;;;12.02;2.45;;;;;;;;;;5009104;28;20110;-75
2024/01/06 12:38:35;;;;;;;10.70;2.65;;;;;;;;;;5020222;28;20036;-76
2024/01/06 12:41:02;;;;;;;9.10;3.03;;;;;;;;;;5028099;28;20556;-74
2024/01/06 12:43:28;;;;;;;12.10;3.15;;;;;;;;;;5026273;28;20032;-74
2024/01/06 12:45:57;;;;;;;9.85;3.10;;;;;;;;;;5026734;28;20024;-76
2024/01/06 12:48:23;;;;;;;10.15;2.38;;;;;;;;;;5011246;28;20041;-73
2024/01/06 12:50:49;;;;;;;12.15;3.80;;;;;;;;;;5018138;28;20040;-74
2024/01/06 12:53:17;;;;;;;10.23;3.60;;;;;;;;;;5028582;28;20036;-74
2024/01/06 12:55:43;;;;;;;10.95;3.28;;;;;;;;;;5028423;28;20012;-73
2024/01/06 12:58:09;;;;;;;9.38;2.75;;;;;;;;;;5032350;28;20659;-73
2024/01/06 13:00:36;;;;;;;9.98;2.60;;;;;;;;;;5036294;28;20017;-73
2024/01/06 13:03:02;;;;;;;11.55;3.70;;;;;;;;;;5022932;28;20953;-74
2024/01/06 13:05:28;;;;;;;11.20;4.13;;;;;;;;;;5033975;28;20021;-74
2024/01/06 13:07:54;;;;;;;11.60;3.20;;;;;;;;;;5023354;28;20032;-74
2024/01/06 13:10:20;;;;;;;11.20;3.53;;;;;;;;;;5026372;28;20484;-74
2024/01/06 13:12:47;;;;;;;11.48;2.10;;;;;;;;;;5032296;28;20090;-75
2024/01/06 13:15:13;;;;;;;6.97;2.10;;;;;;;;;;5027575;28;20584;-74
2024/01/06 13:17:39;;;;;;;8.90;2.20;;;;;;;;;;5030819;28;20120;-74
2024/01/06 13:20:07;;;;;;;9.93;2.72;;;;;;;;;;5022285;28;20039;-76
2024/01/06 13:22:33;;;;;;;10.90;3.28;;;;;;;;;;5034498;28;20037;-75
2024/01/06 13:25:01;;;;;;;10.70;3.17;;;;;;;;;;5033571;28;20032;-75
2024/01/06 13:27:27;;;;;;;10.32;3.30;;;;;;;;;;5028341;28;20599;-75
2024/01/06 13:29:53;;;;;;;9.65;3.10;;;;;;;;;;5029285;28;20128;-75
2024/01/06 13:32:21;;;;;;;12.50;4.72;;;;;;;;;;5034196;28;20047;-75
2024/01/06 13:34:48;;;;;;;13.98;5.20;;;;;;;;;;5026687;28;20572;-74
2024/01/06 13:37:14;;;;;;;11.95;4.57;;;;;;;;;;5028864;28;20036;-74
2024/01/06 13:39:40;;;;;;;10.70;2.58;;;;;;;;;;5024580;28;20361;-75
2024/01/06 13:42:06;;;;;;;9.38;2.63;;;;;;;;;;5023708;28;20121;-74
2024/01/06 13:44:33;;;;;;;9.15;2.78;;;;;;;;;;5033836;28;20028;-75
2024/01/06 13:46:59;;;;;;;9.55;2.40;;;;;;;;;;5023641;28;20033;-74
2024/01/06 13:49:25;;;;;;;8.95;2.45;;;;;;;;;;5026992;28;20039;-75
2024/01/06 13:51:52;;;;;;;9.13;2.33;;;;;;;;;;5030979;28;20808;-74
2024/01/06 13:54:18;;;;;;;9.23;2.20;;;;;;;;;;5027220;28;20623;-75
2024/01/06 13:56:44;;;;;;;9.15;2.15;;;;;;;;;;5031828;28;20066;-76
2024/01/06 13:59:10;;;;;;;8.27;2.10;;;;;;;;;;5024553;28;20044;-75
2024/01/06 14:01:36;;;;;;;10.35;2.28;;;;;;;;;;5029065;28;20025;-74
2024/01/06 14:04:02;;;;;;;9.50;2.40;;;;;;;;;;5025540;28;20029;-75
2024/01/06 14:06:33;;;;;;;12.52;2.90;;;;;;;;;;5028199;28;20162;-75
2024/01/06 14:09:00;;;;;;;10.95;3.03;;;;;;;;;;5026850;28;20025;-74
2024/01/06 14:11:26;;;;;;;10.00;2.78;;;;;;;;;;5009075;28;20036;-75
2024/01/06 14:13:53;;;;;;;10.82;2.17;;;;;;;;;;5027979;28;20029;-74
2024/01/06 14:16:20;;;;;;;8.77;2.05;;;;;;;;;;5023748;28;20177;-74
2024/01/06 14:18:46;;;;;;;7.45;2.42;;;;;;;;;;5028365;28;20548;-74
2024/01/06 14:21:18;;;;;;;7.80;2.08;;;;;;;;;;5025941;28;20039;-73
2024/01/06 14:23:44;;;;;;;11.02;2.22;;;;;;;;;;5029365;28;20075;-73
2024/01/06 14:26:10;;;;;;;10.75;2.47;;;;;;;;;;5026485;28;20123;-76
2024/01/06 14:28:36;;;;;;;9.68;2.55;;;;;;;;;;5015578;28;20154;-73
2024/01/06 14:31:03;;;;;;;8.10;2.40;;;;;;;;;;5005926;28;20041;-74
2024/01/06 14:33:29;;;;;;;8.48;1.83;;;;;;;;;;5013093;28;20109;-75
2024/01/06 14:35:55;;;;;;;8.85;2.50;;;;;;;;;;5025124;28;20037;-76
2024/01/06 14:38:21;;;;;;;10.43;3.10;;;;;;;;;;5004481;28;20031;-74
2024/01/06 14:40:48;;;;;;;11.10;2.70;;;;;;;;;;5009511;28;21406;-74